Time;durP1;ratioP1;P1;durP2;ratioP2;P2;SDS_P1;SDS_P2;PMS_P1;PMS_P2;Temp;Humidity;BMP_temperature;BMP_pressure;BME280_temperature;BME280_humidity;BME280_pressure;Samples;Min_cycle;Max_cycle;Signal;HPM_P1;HPM_P2
2022/03/26 00:00:16;;;;;;;43.00;18.30;;;;;;;6.18;66.33;103126.81;4998858;28;20159;-63
2022/03/26 00:02:42;;;;;;;45.90;19.67;;;;;;;6.20;66.65;103130.31;4999283;28;20045;-62
2022/03/26 00:05:08;;;;;;;46.95;20.02;;;;;;;6.22;66.31;103123.22;4999061;28;20048;-63
2022/03/26 00:07:34;;;;;;;42.47;18.92;;;;;;;6.04;66.34;103140.16;4999194;28;20034;-63
2022/03/26 00:09:59;;;;;;;52.63;20.23;;;;;;;6.07;66.24;103134.81;4984227;28;20133;-62
2022/03/26 00:12:25;;;;;;;48.67;19.17;;;;;;;6.12;66.63;103135.66;5003665;28;20049;-66
2022/03/26 00:14:51;;;;;;;45.90;20.33;;;;;;;6.07;66.56;103134.81;4989700;28;20037;-63
2022/03/26 00:17:16;;;;;;;53.17;20.75;;;;;;;6.03;66.94;103134.88;5006292;28;20050;-66
2022/03/26 00:19:43;;;;;;;48.25;20.63;;;;;;;6.03;66.86;103127.78;5007229;28;20061;-66
2022/03/26 00:22:08;;;;;;;60.47;20.00;;;;;;;6.05;66.86;103130.44;5007498;28;20041;-64
2022/03/26 00:24:34;;;;;;;48.33;19.33;;;;;;;6.05;66.98;103131.31;5006695;28;20045;-63
2022/03/26 00:26:59;;;;;;;50.72;19.77;;;;;;;5.85;66.88;103131.41;5004492;28;20041;-63
2022/03/26 00:29:25;;;;;;;49.95;19.25;;;;;;;5.87;67.09;103139.34;5005641;28;20064;-63
2022/03/26 00:31:50;;;;;;;49.58;21.77;;;;;;;5.88;66.49;103139.34;5011467;28;20021;-64
2022/03/26 00:34:16;;;;;;;55.78;20.40;;;;;;;5.78;67.24;103129.72;5006663;28;20478;-63
2022/03/26 00:36:41;;;;;;;41.92;20.67;;;;;;;5.90;67.79;103136.69;5007815;28;20053;-62
2022/03/26 00:39:06;;;;;;;64.38;21.90;;;;;;;5.96;67.64;103137.53;5015949;28;20026;-63
2022/03/26 00:41:32;;;;;;;55.40;20.60;;;;;;;5.83;67.10;103132.31;5011657;28;20972;-63
2022/03/26 00:43:58;;;;;;;53.15;20.50;;;;;;;5.85;67.47;103131.41;5018273;28;20041;-63
2022/03/26 00:46:23;;;;;;;48.63;19.77;;;;;;;5.80;67.06;103130.56;5004251;28;20037;-64
2022/03/26 00:48:49;;;;;;;57.40;20.70;;;;;;;5.67;67.49;103127.13;4987336;28;20572;-64
2022/03/26 00:51:15;;;;;;;42.03;17.27;;;;;;;5.56;66.82;103136.88;5021034;28;20610;-65
2022/03/26 00:53:45;;;;;;;43.70;18.10;;;;;;;5.45;67.25;103131.66;5016178;28;20045;-64
2022/03/26 00:56:12;;;;;;;48.53;19.40;;;;;;;5.31;68.09;103132.59;5014013;28;20068;-64
2022/03/26 00:58:38;;;;;;;43.00;18.35;;;;;;;4.93;68.44;103136.28;4986055;28;20502;-65
2022/03/26 01:01:03;;;;;;;43.22;19.30;;;;;;;4.94;69.68;103138.03;4990233;28;20403;-64
2022/03/26 01:03:29;;;;;;;65.50;20.58;;;;;;;4.95;69.62;103129.22;5020924;28;20033;-67
2022/03/26 01:05:54;;;;;;;48.17;19.65;;;;;;;4.92;70.21;103135.41;5008117;28;20049;-63
2022/03/26 01:08:19;;;;;;;64.75;20.17;;;;;;;4.75;70.72;103134.56;5012631;28;20048;-62
2022/03/26 01:10:46;;;;;;;47.75;19.77;;;;;;;4.82;70.34;103135.41;4983233;28;20057;-66
2022/03/26 01:13:12;;;;;;;50.08;22.52;;;;;;;4.91;70.79;103138.91;4982741;28;20042;-64
2022/03/26 01:15:37;;;;;;;47.78;20.83;;;;;;;5.00;70.64;103138.00;4982519;28;20038;-64
2022/03/26 01:18:03;;;;;;;52.20;21.55;;;;;;;5.08;70.21;103130.06;4982195;28;20034;-64
2022/03/26 01:20:29;;;;;;;55.33;22.42;;;;;;;5.05;70.54;103125.66;4969189;28;20609;-64
2022/03/26 01:22:54;;;;;;;59.55;21.73;;;;;;;5.13;70.45;103128.28;5002529;28;20087;-64
2022/03/26 01:25:20;;;;;;;54.63;22.25;;;;;;;5.19;70.12;103128.25;5002269;28;20041;-65
2022/03/26 01:27:45;;;;;;;45.95;21.55;;;;;;;5.18;69.72;103129.16;5002899;28;20589;-64
2022/03/26 01:30:11;;;;;;;52.95;22.48;;;;;;;5.12;70.29;103123.84;5002670;28;20038;-64
2022/03/26 01:32:36;;;;;;;62.28;24.92;;;;;;;5.04;70.77;103121.25;5003001;28;20826;-63
2022/03/26 01:35:02;;;;;;;56.25;23.67;;;;;;;4.99;70.91;103119.50;4985127;28;20053;-64
2022/03/26 01:37:28;;;;;;;60.72;24.17;;;;;;;4.86;71.38;103116.88;5002448;28;20052;-63
2022/03/26 01:39:54;;;;;;;65.78;24.27;;;;;;;4.81;71.34;103129.25;5002466;28;20061;-63
2022/03/26 01:42:20;;;;;;;50.50;24.35;;;;;;;4.80;71.42;103135.41;5002319;28;20050;-63
2022/03/26 01:44:46;;;;;;;57.90;24.40;;;;;;;4.74;71.90;103131.91;5001749;28;20045;-63
2022/03/26 01:47:11;;;;;;;60.28;24.25;;;;;;;4.85;71.64;103132.78;5001819;28;20664;-64
2022/03/26 01:49:37;;;;;;;62.67;25.13;;;;;;;4.93;71.57;103125.72;4984034;28;20128;-63
2022/03/26 01:52:04;;;;;;;64.30;25.40;;;;;;;4.95;71.61;103123.91;5000324;28;20050;-63
2022/03/26 01:54:31;;;;;;;56.42;24.92;;;;;;;4.81;71.59;103121.31;5000741;28;20049;-63
2022/03/26 01:56:57;;;;;;;66.65;25.25;;;;;;;4.79;71.73;103124.84;5001537;28;20042;-63
2022/03/26 01:59:24;;;;;;;63.65;23.92;;;;;;;4.81;71.87;103115.16;4984047;28;20056;-63
2022/03/26 02:01:50;;;;;;;61.50;25.02;;;;;;;4.81;72.39;103118.66;5002349;28;20037;-63
2022/03/26 02:04:16;;;;;;;60.33;25.33;;;;;;;4.73;72.47;103115.19;5000996;28;20544;-64
2022/03/26 02:06:42;;;;;;;67.28;26.65;;;;;;;4.64;72.93;103115.19;5000736;28;20073;-63
2022/03/26 02:09:09;;;;;;;63.97;25.17;;;;;;;4.62;72.51;103127.56;5001731;28;20197;-63
2022/03/26 02:11:38;;;;;;;73.85;26.55;;;;;;;4.65;72.59;103122.25;4983679;28;21006;-64
2022/03/26 02:14:04;;;;;;;71.03;26.42;;;;;;;4.70;72.36;103117.81;4983198;28;20472;-63
2022/03/26 02:16:32;;;;;;;66.53;25.60;;;;;;;4.78;72.33;103121.34;5001716;28;20826;-63
2022/03/26 02:18:58;;;;;;;54.80;25.15;;;;;;;4.84;72.05;103112.50;4983712;28;20029;-64
2022/03/26 02:21:24;;;;;;;59.33;25.15;;;;;;;4.76;72.09;103117.81;4989817;28;20514;-65
2022/03/26 02:23:50;;;;;;;71.05;27.98;;;;;;;4.84;72.24;103113.38;4981339;28;20038;-63
2022/03/26 02:26:22;;;;;;;80.75;25.95;;;;;;;4.76;72.25;103116.94;4963192;28;20046;-63
2022/03/26 02:28:49;;;;;;;67.82;26.25;;;;;;;4.77;72.31;103109.00;4981513;28;20046;-63
2022/03/26 02:31:16;;;;;;;70.20;29.25;;;;;;;4.75;72.44;103116.06;4979457;28;20042;-63
2022/03/26 02:33:42;;;;;;;69.25;26.75;;;;;;;4.75;72.30;103110.75;4981021;28;20034;-63
2022/03/26 02:36:08;;;;;;;61.17;25.75;;;;;;;4.76;72.23;103116.94;4980599;28;20052;-63
2022/03/26 02:38:33;;;;;;;61.63;24.25;;;;;;;4.83;71.90;103110.75;4981331;28;20050;-63
2022/03/26 02:40:59;;;;;;;73.75;28.42;;;;;;;4.76;72.01;103122.22;4981181;28;20038;-67
2022/03/26 02:43:25;;;;;;;75.63;27.52;;;;;;;4.67;72.48;103121.38;4980592;28;20074;-64
2022/03/26 02:45:50;;;;;;;71.30;24.77;;;;;;;4.64;72.40;103118.72;4962917;28;20683;-64
2022/03/26 02:48:15;;;;;;;74.43;26.95;;;;;;;4.69;72.56;103110.78;4980581;28;20050;-64
2022/03/26 02:50:42;;;;;;;67.35;25.67;;;;;;;4.64;72.75;103109.91;4981550;28;20418;-64
2022/03/26 02:53:09;;;;;;;69.15;27.25;;;;;;;4.55;72.73;103112.56;4980150;28;20093;-63
2022/03/26 02:55:34;;;;;;;68.10;27.45;;;;;;;4.52;72.67;103115.22;4999538;28;20042;-64
2022/03/26 02:58:01;;;;;;;70.10;26.02;;;;;;;4.49;72.88;103107.31;5000840;28;20050;-64
2022/03/26 03:00:27;;;;;;;74.43;27.48;;;;;;;4.53;73.34;103112.59;4987139;28;20053;-64
2022/03/26 03:02:52;;;;;;;64.75;26.90;;;;;;;4.57;72.76;103113.47;4979451;28;20054;-63
2022/03/26 03:05:18;;;;;;;64.20;27.48;;;;;;;4.49;73.25;103113.47;4980628;28;20057;-63
2022/03/26 03:07:44;;;;;;;70.18;28.05;;;;;;;4.52;73.09;103113.47;4979582;28;20061;-64
2022/03/26 03:10:11;;;;;;;65.47;26.05;;;;;;;4.56;72.88;103114.31;4980751;28;20038;-64
2022/03/26 03:12:36;;;;;;;72.72;28.77;;;;;;;4.55;72.65;103109.94;4963796;28;20151;-64
2022/03/26 03:15:02;;;;;;;67.80;26.95;;;;;;;4.47;72.83;103112.59;4994723;28;20034;-64
2022/03/26 03:17:28;;;;;;;71.93;28.20;;;;;;;4.39;72.97;103111.72;5002017;28;20037;-63
2022/03/26 03:19:53;;;;;;;63.33;27.45;;;;;;;4.45;72.71;103113.47;4985627;28;20475;-63
2022/03/26 03:22:19;;;;;;;70.30;26.60;;;;;;;4.45;72.35;103108.19;5001320;28;20038;-63
2022/03/26 03:24:44;;;;;;;72.63;29.30;;;;;;;4.54;71.98;103106.41;5002589;28;20030;-64
2022/03/26 03:27:10;;;;;;;69.18;28.02;;;;;;;4.44;72.12;103117.88;5002710;28;20029;-64
2022/03/26 03:29:35;;;;;;;72.95;27.92;;;;;;;4.30;73.03;103123.16;5002426;28;20048;-64
2022/03/26 03:32:01;;;;;;;86.03;30.13;;;;;;;4.21;72.95;103123.16;5002045;28;20034;-63
2022/03/26 03:34:26;;;;;;;69.20;27.23;;;;;;;4.18;73.58;103124.94;5002575;28;20874;-63
2022/03/26 03:36:52;;;;;;;81.95;29.63;;;;;;;4.08;73.35;103130.22;5002460;28;20064;-63
2022/03/26 03:39:17;;;;;;;68.80;27.85;;;;;;;4.10;73.41;103119.66;5002728;28;20034;-64
2022/03/26 03:41:43;;;;;;;85.85;29.55;;;;;;;4.18;73.31;103120.53;4984378;28;20494;-64
2022/03/26 03:44:10;;;;;;;78.45;28.17;;;;;;;4.15;73.43;103120.53;4984132;28;20038;-64
2022/03/26 03:46:36;;;;;;;85.88;29.00;;;;;;;4.19;72.95;103119.66;5002629;28;20063;-64
2022/03/26 03:49:04;;;;;;;77.45;27.67;;;;;;;4.19;72.59;103118.78;4987900;28;20556;-64
2022/03/26 03:51:30;;;;;;;78.72;28.15;;;;;;;4.13;73.10;103122.28;5006041;28;20143;-64
2022/03/26 03:53:55;;;;;;;88.60;28.30;;;;;;;4.09;73.15;103120.53;5004978;28;20542;-64
2022/03/26 03:56:22;;;;;;;64.38;27.00;;;;;;;4.03;72.64;103116.13;5004977;28;20414;-64
2022/03/26 03:58:50;;;;;;;70.28;27.60;;;;;;;3.99;73.11;103118.75;5005271;28;20037;-65
2022/03/26 04:01:15;;;;;;;69.50;27.83;;;;;;;4.01;73.26;103119.63;5005656;28;20042;-64
2022/03/26 04:03:41;;;;;;;67.95;28.20;;;;;;;3.97;72.94;103115.25;4987105;28;20494;-64
2022/03/26 04:06:06;;;;;;;73.65;29.80;;;;;;;3.96;73.04;103116.13;4986680;28;20482;-64
2022/03/26 04:08:32;;;;;;;72.53;28.38;;;;;;;3.87;73.04;103120.53;5002463;28;20054;-64
2022/03/26 04:10:57;;;;;;;68.40;27.77;;;;;;;3.72;73.70;103122.25;5003790;28;20049;-64
2022/03/26 04:13:23;;;;;;;76.07;28.33;;;;;;;3.70;73.33;103122.25;5004095;28;20045;-64
2022/03/26 04:15:48;;;;;;;73.78;29.40;;;;;;;3.73;74.01;103122.25;4986523;28;20053;-64
2022/03/26 04:18:14;;;;;;;74.50;28.95;;;;;;;3.65;74.13;103116.06;5004641;28;20045;-64
2022/03/26 04:20:40;;;;;;;73.60;28.05;;;;;;;3.59;74.76;103131.91;5004465;28;20405;-64
2022/03/26 04:23:05;;;;;;;79.65;29.63;;;;;;;3.59;74.38;103132.78;5002900;28;20046;-64
2022/03/26 04:25:32;;;;;;;69.97;28.42;;;;;;;3.52;74.99;103124.84;5004376;28;20041;-64
2022/03/26 04:27:57;;;;;;;72.65;29.55;;;;;;;3.50;74.22;103132.75;5003053;28;20096;-64
2022/03/26 04:30:23;;;;;;;73.82;28.40;;;;;;;3.52;74.33;103133.66;5002512;28;20482;-64
2022/03/26 04:32:49;;;;;;;75.82;29.80;;;;;;;3.56;74.56;103143.31;5003800;28;20576;-64
2022/03/26 04:35:14;;;;;;;79.20;28.92;;;;;;;3.49;74.11;103136.25;5003865;28;20051;-64
2022/03/26 04:37:41;;;;;;;83.88;29.75;;;;;;;3.54;73.73;103136.28;4985864;28;20045;-64
2022/03/26 04:40:09;;;;;;;82.53;29.17;;;;;;;3.63;74.28;103142.47;5004293;28;20049;-65
2022/03/26 04:42:35;;;;;;;84.05;31.15;;;;;;;3.66;73.97;103146.84;5003642;28;20058;-64
2022/03/26 04:45:00;;;;;;;74.45;29.80;;;;;;;3.55;73.83;103138.91;4985856;28;20100;-63
2022/03/26 04:47:26;;;;;;;78.38;30.25;;;;;;;3.60;73.90;103141.56;5003995;28;20085;-64
2022/03/26 04:49:51;;;;;;;69.15;28.15;;;;;;;3.61;73.94;103138.03;5003832;28;20045;-64
2022/03/26 04:52:17;;;;;;;78.95;29.63;;;;;;;3.58;72.97;103140.69;5002318;28;20042;-64
2022/03/26 04:54:43;;;;;;;79.28;28.60;;;;;;;3.53;73.23;103142.44;5003730;28;20461;-64
2022/03/26 04:57:09;;;;;;;71.03;29.17;;;;;;;3.44;74.19;103137.13;5004177;28;20042;-64
2022/03/26 04:59:34;;;;;;;70.78;29.35;;;;;;;3.44;73.41;103132.72;4984793;28;20463;-64
2022/03/26 05:01:59;;;;;;;77.25;29.25;;;;;;;3.41;74.11;103134.47;5003552;28;20045;-64
2022/03/26 05:04:25;;;;;;;71.70;29.35;;;;;;;3.37;73.52;103133.59;4985101;28;20045;-64
2022/03/26 05:06:50;;;;;;;71.38;27.65;;;;;;;3.27;73.54;103135.31;5001626;28;20064;-65
2022/03/26 05:09:16;;;;;;;62.92;26.65;;;;;;;3.11;73.26;103137.00;5002930;28;20042;-64
2022/03/26 05:11:42;;;;;;;65.55;25.92;;;;;;;3.12;72.91;103143.16;5003036;28;20052;-63
2022/03/26 05:14:07;;;;;;;83.85;30.52;;;;;;;3.09;74.33;103135.22;5002820;28;20096;-68
2022/03/26 05:16:33;;;;;;;79.97;30.27;;;;;;;3.17;74.50;103136.16;4985143;28;20046;-63
2022/03/26 05:18:59;;;;;;;85.93;30.55;;;;;;;3.29;74.40;103135.31;5002341;28;20120;-63
2022/03/26 05:21:24;;;;;;;80.05;29.30;;;;;;;3.19;74.44;103138.78;5002003;28;20057;-63
2022/03/26 05:23:50;;;;;;;78.60;29.33;;;;;;;3.15;74.15;103137.00;5000259;28;20045;-63
2022/03/26 05:26:15;;;;;;;66.05;27.42;;;;;;;3.08;73.72;103136.97;5001763;28;20085;-63
2022/03/26 05:28:41;;;;;;;84.15;28.73;;;;;;;3.03;74.17;103137.84;5002814;28;20046;-63
2022/03/26 05:31:07;;;;;;;74.28;28.35;;;;;;;2.94;73.98;103157.09;5002532;28;20050;-63
2022/03/26 05:33:32;;;;;;;79.18;29.95;;;;;;;3.11;73.46;103146.66;5002437;28;20042;-64
2022/03/26 05:35:57;;;;;;;75.57;27.77;;;;;;;3.29;73.04;103146.75;5002658;28;20516;-63
2022/03/26 05:38:23;;;;;;;74.65;30.15;;;;;;;3.33;73.53;103151.16;5002208;28;20041;-66
2022/03/26 05:40:49;;;;;;;80.38;29.92;;;;;;;3.29;72.88;103146.75;5002144;28;20030;-63
2022/03/26 05:43:15;;;;;;;71.90;29.48;;;;;;;3.35;73.68;103148.50;5002103;28;20053;-63
2022/03/26 05:45:41;;;;;;;78.68;30.20;;;;;;;3.31;73.34;103146.72;5002088;28;20073;-63
2022/03/26 05:48:07;;;;;;;73.18;29.17;;;;;;;3.40;72.58;103152.03;5001706;28;20853;-63
2022/03/26 05:50:34;;;;;;;69.70;28.60;;;;;;;3.29;73.02;103153.78;5001623;28;20053;-63
2022/03/26 05:53:00;;;;;;;75.82;29.48;;;;;;;3.26;73.68;103152.03;4999799;28;20045;-64
2022/03/26 05:55:26;;;;;;;77.32;30.33;;;;;;;3.40;73.67;103159.97;5000380;28;20045;-63
2022/03/26 05:57:51;;;;;;;80.25;29.67;;;;;;;3.45;73.04;103160.84;4982562;28;20769;-63
2022/03/26 06:00:17;;;;;;;76.90;31.20;;;;;;;3.55;72.90;103167.94;5000282;28;20046;-65
2022/03/26 06:02:44;;;;;;;70.60;27.88;;;;;;;3.68;71.55;103163.56;5001193;28;20129;-63
2022/03/26 06:05:09;;;;;;;65.15;27.55;;;;;;;3.80;71.21;103168.88;5001461;28;20045;-64
2022/03/26 06:07:35;;;;;;;76.72;30.77;;;;;;;3.77;72.71;103174.16;4983116;28;20065;-64
2022/03/26 06:10:01;;;;;;;82.18;31.70;;;;;;;3.94;71.99;103176.81;5000743;28;20757;-64
2022/03/26 06:12:26;;;;;;;76.53;30.77;;;;;;;4.05;71.72;103179.47;5001701;28;20034;-64
2022/03/26 06:14:52;;;;;;;75.85;31.45;;;;;;;4.23;71.06;103179.50;5001297;28;20048;-63
2022/03/26 06:17:17;;;;;;;72.90;28.95;;;;;;;4.36;70.80;103185.66;5001708;28;20038;-63
2022/03/26 06:19:43;;;;;;;69.57;27.23;;;;;;;4.47;69.97;103185.66;4984554;28;20050;-67
2022/03/26 06:22:09;;;;;;;71.70;28.40;;;;;;;4.43;70.44;103187.44;4985434;28;20384;-63
2022/03/26 06:24:34;;;;;;;69.82;30.42;;;;;;;4.65;69.95;103189.19;4983762;28;20088;-64
2022/03/26 06:27:01;;;;;;;71.13;29.67;;;;;;;4.79;69.92;103183.88;4984319;28;20042;-64
2022/03/26 06:29:27;;;;;;;75.55;29.70;;;;;;;5.05;69.11;103185.59;4984881;28;20142;-64
2022/03/26 06:31:52;;;;;;;71.18;30.95;;;;;;;5.35;68.14;103185.50;4983929;28;20134;-64
2022/03/26 06:34:17;;;;;;;65.88;26.75;;;;;;;5.45;68.28;103184.56;4984187;28;20525;-64
2022/03/26 06:36:43;;;;;;;71.90;30.63;;;;;;;5.75;67.62;103189.72;4983984;28;20081;-64
2022/03/26 06:39:09;;;;;;;78.20;30.40;;;;;;;6.18;65.50;103185.06;4984081;28;20042;-64
2022/03/26 06:41:42;;;;;;;76.68;31.55;;;;;;;6.65;63.44;103189.97;4983072;28;20046;-64
2022/03/26 06:44:08;;;;;;;82.88;31.25;;;;;;;6.99;62.60;103187.00;4965837;28;20042;-64
2022/03/26 06:46:35;;;;;;;83.47;32.60;;;;;;;7.10;62.40;103182.44;4982902;28;20046;-64
2022/03/26 06:49:01;;;;;;;75.60;31.83;;;;;;;7.54;61.74;103181.03;4983153;28;20046;-64
2022/03/26 06:51:27;;;;;;;72.07;30.48;;;;;;;8.13;59.08;103176.63;4964799;28;20042;-64
2022/03/26 06:53:52;;;;;;;78.22;31.35;;;;;;;7.77;60.80;103172.75;4982420;28;20042;-64
2022/03/26 06:56:18;;;;;;;78.57;33.00;;;;;;;8.78;57.28;103169.34;4964565;28;20050;-64
2022/03/26 06:58:44;;;;;;;81.43;32.08;;;;;;;8.72;58.40;103169.47;4982436;28;20050;-64
2022/03/26 07:01:10;;;;;;;77.45;31.95;;;;;;;9.11;57.86;103163.41;5000939;28;20057;-64
2022/03/26 07:03:36;;;;;;;76.82;32.28;;;;;;;9.25;57.32;103169.34;5001893;28;20057;-64
2022/03/26 07:06:01;;;;;;;73.68;32.08;;;;;;;9.91;54.57;103176.78;5000975;28;20092;-64
2022/03/26 07:08:27;;;;;;;75.50;32.75;;;;;;;10.09;53.44;103184.34;4983659;28;20033;-65
2022/03/26 07:10:52;;;;;;;78.28;32.40;;;;;;;10.22;53.30;103186.72;4981243;28;20351;-65
2022/03/26 07:13:18;;;;;;;72.15;31.95;;;;;;;10.06;53.59;103186.22;4999395;28;20045;-65
2022/03/26 07:15:44;;;;;;;70.88;32.35;;;;;;;10.26;53.67;103183.09;5001612;28;20033;-65
2022/03/26 07:18:09;;;;;;;77.50;33.88;;;;;;;10.27;53.89;103190.19;5000215;28;20445;-63
2022/03/26 07:20:35;;;;;;;79.80;33.47;;;;;;;10.34;54.67;103192.69;4999910;28;20148;-63
2022/03/26 07:23:00;;;;;;;95.15;35.15;;;;;;;10.54;55.48;103192.19;4981518;28;20092;-64
2022/03/26 07:25:26;;;;;;;79.50;33.15;;;;;;;10.84;54.57;103185.16;5000426;28;20482;-64
2022/03/26 07:27:52;;;;;;;80.45;34.08;;;;;;;10.95;55.09;103189.34;5001125;28;20040;-64
2022/03/26 07:30:17;;;;;;;84.13;35.85;;;;;;;10.92;55.21;103198.28;4998217;28;20963;-63
2022/03/26 07:32:43;;;;;;;87.80;37.42;;;;;;;10.49;54.90;103196.75;4979799;28;20042;-64
2022/03/26 07:35:09;;;;;;;87.15;37.28;;;;;;;10.22;55.93;103216.91;4996014;28;20042;-64
2022/03/26 07:37:34;;;;;;;91.93;39.22;;;;;;;10.25;56.50;103216.03;4998426;28;20043;-63
2022/03/26 07:40:00;;;;;;;90.80;39.88;;;;;;;10.33;56.67;103206.03;4996368;28;20056;-64
2022/03/26 07:42:26;;;;;;;95.20;39.40;;;;;;;10.31;55.44;103213.19;4997880;28;20065;-63
2022/03/26 07:44:52;;;;;;;92.22;39.60;;;;;;;10.42;55.44;103205.81;4998894;28;20057;-64
2022/03/26 07:47:18;;;;;;;95.38;39.80;;;;;;;10.68;55.40;103217.59;4980650;28;20069;-64
2022/03/26 07:49:43;;;;;;;91.28;39.53;;;;;;;10.80;55.06;103204.84;4998260;28;20056;-63
2022/03/26 07:52:09;;;;;;;85.35;39.50;;;;;;;11.35;54.96;103207.78;4999296;28;20045;-64
2022/03/26 07:54:34;;;;;;;96.65;40.60;;;;;;;11.18;55.58;103208.25;4998259;28;20034;-64
2022/03/26 07:57:00;;;;;;;96.35;41.00;;;;;;;11.84;54.66;103212.56;4997187;28;20038;-64
2022/03/26 07:59:25;;;;;;;89.30;41.15;;;;;;;11.66;55.31;103210.44;4997270;28;20050;-63
2022/03/26 08:01:51;;;;;;;95.70;41.40;;;;;;;11.77;53.11;103213.66;4997436;28;20047;-63
2022/03/26 08:04:16;;;;;;;91.78;39.53;;;;;;;12.10;54.43;103217.13;4997714;28;20154;-63
2022/03/26 08:06:41;;;;;;;92.10;39.13;;;;;;;11.56;52.61;103225.88;4997695;28;20631;-63
2022/03/26 08:09:07;;;;;;;91.75;38.42;;;;;;;11.91;54.29;103224.84;4997869;28;20053;-63
2022/03/26 08:11:32;;;;;;;92.93;40.13;;;;;;;11.45;54.39;103225.31;4977919;28;20053;-63
2022/03/26 08:13:58;;;;;;;93.78;40.22;;;;;;;11.48;53.90;103224.31;5000426;28;20034;-63
2022/03/26 08:16:23;;;;;;;95.13;38.75;;;;;;;11.67;55.10;103234.44;5003355;28;20046;-64
2022/03/26 08:18:48;;;;;;;94.72;39.97;;;;;;;11.93;56.60;103220.31;5018363;28;20045;-63
2022/03/26 08:21:15;;;;;;;81.30;37.55;;;;;;;11.77;55.37;103232.38;5013676;28;20037;-63
2022/03/26 08:23:40;;;;;;;86.65;39.13;;;;;;;11.58;56.44;103234.69;4993425;28;20045;-64
2022/03/26 08:26:26;;;;;;;92.57;38.30;;;;;;;11.58;56.67;103234.69;5004527;28;20048;-64
2022/03/26 08:28:54;;;;;;;88.93;40.05;;;;;;;11.66;56.59;103231.81;5000916;28;20041;-63
2022/03/26 08:31:23;;;;;;;86.70;39.03;;;;;;;11.37;56.86;103241.53;5005018;28;20125;-64
2022/03/26 08:33:49;;;;;;;89.00;38.65;;;;;;;11.70;55.76;103240.59;5011352;28;20125;-64
2022/03/26 08:36:16;;;;;;;90.13;39.53;;;;;;;11.70;55.82;103240.59;5003863;28;20045;-63
2022/03/26 08:38:44;;;;;;;94.53;37.63;;;;;;;11.72;55.87;103242.31;5009986;28;20132;-63
2022/03/26 08:41:11;;;;;;;84.07;36.45;;;;;;;11.90;57.22;103246.28;5002762;28;20042;-63
2022/03/26 08:43:36;;;;;;;87.90;37.90;;;;;;;12.22;55.97;103249.75;5003325;28;20072;-63
2022/03/26 08:46:01;;;;;;;84.38;38.28;;;;;;;12.14;57.13;103250.84;5002666;28;20063;-63
2022/03/26 08:48:27;;;;;;;86.70;36.90;;;;;;;12.03;54.49;103252.13;5002549;28;20030;-64
2022/03/26 08:50:52;;;;;;;98.93;39.65;;;;;;;12.28;53.08;103241.53;5018724;28;20501;-64
2022/03/26 08:53:18;;;;;;;93.75;37.38;;;;;;;12.17;53.53;103248.09;4986730;28;20069;-64
2022/03/26 08:55:43;;;;;;;87.65;35.65;;;;;;;12.42;55.14;103242.84;4986221;28;20050;-63
2022/03/26 08:58:09;;;;;;;91.32;38.72;;;;;;;12.59;53.41;103249.44;4993273;28;20049;-65
2022/03/26 09:00:35;;;;;;;92.15;37.17;;;;;;;12.80;51.50;103245.16;5020348;28;20033;-64
2022/03/26 09:03:01;;;;;;;91.93;37.58;;;;;;;12.75;52.00;103236.41;5022608;28;20123;-63
2022/03/26 09:05:27;;;;;;;95.93;37.17;;;;;;;12.65;53.57;103249.22;5002917;28;20557;-63
2022/03/26 09:07:53;;;;;;;84.95;35.15;;;;;;;12.77;51.04;103239.91;5002866;28;20045;-63
2022/03/26 09:10:18;;;;;;;94.00;34.03;;;;;;;12.98;51.71;103244.53;5002466;28;20092;-64
2022/03/26 09:12:44;;;;;;;95.68;36.80;;;;;;;12.98;51.95;103233.81;5002468;28;20133;-65
2022/03/26 09:15:09;;;;;;;89.82;34.97;;;;;;;13.17;51.47;103239.41;5019641;28;20072;-64
2022/03/26 09:17:36;;;;;;;81.32;32.60;;;;;;;13.05;50.44;103234.47;4996878;28;20029;-64
2022/03/26 09:20:05;;;;;;;83.10;32.10;;;;;;;13.08;50.53;103245.06;5013034;28;20734;-63
2022/03/26 09:22:30;;;;;;;72.10;30.85;;;;;;;12.78;50.33;103247.88;5006452;28;20045;-63
2022/03/26 09:24:56;;;;;;;75.63;31.83;;;;;;;13.45;52.65;103250.91;5006038;28;20041;-64
2022/03/26 09:27:21;;;;;;;84.70;34.75;;;;;;;13.97;51.75;103251.59;5002268;28;20075;-63
2022/03/26 09:29:47;;;;;;;68.25;28.17;;;;;;;13.78;51.32;103249.69;5001460;28;20037;-63
2022/03/26 09:32:12;;;;;;;76.53;31.15;;;;;;;13.99;51.27;103254.22;4999585;28;20053;-64
2022/03/26 09:34:38;;;;;;;64.70;30.02;;;;;;;13.81;54.21;103252.25;4998472;28;20045;-63
2022/03/26 09:37:03;;;;;;;71.03;30.92;;;;;;;13.57;53.15;103256.75;5000244;28;20042;-63
2022/03/26 09:39:29;;;;;;;60.90;26.63;;;;;;;13.57;55.15;103254.06;4999629;28;20120;-65
2022/03/26 09:41:55;;;;;;;60.75;27.58;;;;;;;13.78;53.22;103245.19;4980391;28;20062;-63
2022/03/26 09:44:21;;;;;;;69.15;28.95;;;;;;;13.90;52.48;103249.19;5000760;28;20037;-63
2022/03/26 09:46:46;;;;;;;62.47;27.73;;;;;;;13.94;53.33;103249.03;5001918;28;20564;-64
2022/03/26 09:49:12;;;;;;;56.08;26.70;;;;;;;13.68;54.01;103250.03;5004314;28;20046;-64
2022/03/26 09:51:37;;;;;;;63.85;28.85;;;;;;;13.61;52.79;103250.34;4991422;28;20033;-63
2022/03/26 09:54:03;;;;;;;70.53;30.80;;;;;;;14.39;55.90;103250.81;5021059;28;20519;-63
2022/03/26 09:56:28;;;;;;;66.68;31.23;;;;;;;14.32;52.76;103249.31;5015104;28;20098;-65
2022/03/26 09:58:55;;;;;;;62.17;29.02;;;;;;;14.51;53.99;103246.81;5003915;28;20046;-64
2022/03/26 10:01:21;;;;;;;57.03;25.90;;;;;;;14.04;53.12;103248.66;5020697;28;20042;-64
2022/03/26 10:04:11;;;;;;;59.40;27.67;;;;;;;14.57;54.78;103246.53;5012771;28;20045;-65
2022/03/26 10:06:45;;;;;;;59.80;27.63;;;;;;;14.30;52.43;103242.25;5015779;28;20740;-64
2022/03/26 10:09:10;;;;;;;67.65;30.05;;;;;;;14.60;53.60;103241.03;5017895;28;20042;-64
2022/03/26 10:11:36;;;;;;;66.45;31.58;;;;;;;15.07;52.42;103230.06;5006231;28;20092;-64
2022/03/26 10:14:01;;;;;;;58.05;27.67;;;;;;;15.17;53.67;103235.91;5010603;28;20474;-64
2022/03/26 10:16:27;;;;;;;65.85;27.67;;;;;;;14.70;51.14;103234.31;5014509;28;20033;-63
2022/03/26 10:18:52;;;;;;;54.55;25.80;;;;;;;14.67;52.10;103230.91;5004199;28;20046;-63
2022/03/26 10:21:20;;;;;;;64.50;26.88;;;;;;;14.67;53.56;103228.22;5019577;28;20044;-63
2022/03/26 10:23:50;;;;;;;60.17;26.13;;;;;;;14.58;52.47;103225.94;4990518;28;20893;-64
2022/03/26 10:26:21;;;;;;;57.92;27.85;;;;;;;14.77;52.09;103230.47;5012441;28;20099;-64
2022/03/26 10:28:55;;;;;;;44.58;21.13;;;;;;;14.66;52.81;103227.38;5020737;28;20069;-64
2022/03/26 10:34:16;;;;;;;50.78;23.15;;;;;;;15.24;55.36;103224.81;5003844;28;20045;-64
2022/03/26 10:36:43;;;;;;;46.50;22.00;;;;;;;14.73;52.20;103223.47;5020618;28;20065;-63
2022/03/26 10:39:23;;;;;;;43.25;21.83;;;;;;;14.74;51.13;103216.28;5012888;28;20044;-63
2022/03/26 10:41:50;;;;;;;51.65;24.58;;;;;;;15.13;52.24;103212.78;4998602;28;20554;-63
2022/03/26 10:44:18;;;;;;;42.78;20.52;;;;;;;15.12;49.52;103213.75;4999986;28;20029;-64
2022/03/26 10:46:50;;;;;;;43.00;20.33;;;;;;;15.17;52.22;103215.28;4976521;28;20046;-63
2022/03/26 10:49:36;;;;;;;42.45;20.83;;;;;;;15.32;50.28;103211.03;4999803;28;20042;-63
2022/03/26 10:52:14;;;;;;;48.00;22.85;;;;;;;15.49;51.69;103210.25;5008301;28;20041;-63
2022/03/26 10:54:40;;;;;;;48.10;22.85;;;;;;;15.59;51.50;103206.19;5018958;28;20774;-64
2022/03/26 10:57:05;;;;;;;50.15;22.88;;;;;;;15.66;48.34;103201.41;5002324;28;20041;-63
2022/03/26 10:59:31;;;;;;;46.28;22.20;;;;;;;15.94;52.02;103203.69;5013462;28;20053;-63
2022/03/26 11:01:58;;;;;;;38.35;20.83;;;;;;;15.92;48.10;103205.59;5007580;28;20046;-64
2022/03/26 11:04:25;;;;;;;34.85;17.50;;;;;;;15.41;49.10;103205.25;5019770;28;20049;-63
2022/03/26 11:06:51;;;;;;;41.30;19.10;;;;;;;15.43;48.40;103200.66;5001480;28;20079;-63
2022/03/26 11:09:16;;;;;;;41.08;19.83;;;;;;;15.91;49.43;103199.31;5004152;28;20820;-64
2022/03/26 11:11:45;;;;;;;22.75;12.65;;;;;;;15.83;47.40;103201.50;4994826;28;20046;-64